createdAt,value
2023-08-15T00:00:45.516Z,6.78
2023-08-15T00:03:12.977Z,6.63
2023-08-15T00:05:40.386Z,6.05
2023-08-15T00:08:07.701Z,6.43
2023-08-15T00:10:35.153Z,7.25
2023-08-15T00:13:04.305Z,7.13
2023-08-15T00:15:32.162Z,7.05
2023-08-15T00:18:00.266Z,7.05
2023-08-15T00:20:27.659Z,7.00
2023-08-15T00:22:55.009Z,7.15
2023-08-15T00:25:22.325Z,6.90
2023-08-15T00:27:49.604Z,6.85
2023-08-15T00:30:16.991Z,7.07
2023-08-15T00:32:44.512Z,7.07
2023-08-15T00:35:12.467Z,7.75
2023-08-15T00:37:39.996Z,7.75
2023-08-15T00:40:08.271Z,7.47
2023-08-15T00:42:35.599Z,7.22
2023-08-15T00:45:03.713Z,7.78
2023-08-15T00:47:31.576Z,7.90
2023-08-15T00:49:59.730Z,7.70
2023-08-15T00:52:27.677Z,7.72
2023-08-15T00:54:55.553Z,7.03
2023-08-15T00:57:23.680Z,6.97
2023-08-15T00:59:51.730Z,8.05
2023-08-15T01:02:19.851Z,7.45
2023-08-15T01:04:47.273Z,7.53
2023-08-15T01:07:14.670Z,7.60
2023-08-15T01:09:43.325Z,7.85
2023-08-15T01:12:44.272Z,7.68
2023-08-15T01:15:17.920Z,7.32
2023-08-15T01:17:56.361Z,7.35
2023-08-15T01:20:29.994Z,7.25
2023-08-15T01:23:02.173Z,7.65
2023-08-15T01:25:33.536Z,7.65
2023-08-15T01:28:01.079Z,7.10
2023-08-15T01:30:28.931Z,7.25
2023-08-15T01:33:08.063Z,7.43
2023-08-15T01:35:40.504Z,7.22
2023-08-15T01:38:32.115Z,6.55
2023-08-15T01:41:02.001Z,6.75
2023-08-15T01:43:30.171Z,6.75
2023-08-15T01:45:59.214Z,6.30
2023-08-15T01:48:26.505Z,6.65
2023-08-15T01:50:54.811Z,7.45
2023-08-15T01:53:22.175Z,7.00
2023-08-15T01:55:49.552Z,6.90
2023-08-15T01:58:16.910Z,6.70
2023-08-15T02:00:46.654Z,6.65
2023-08-15T02:03:13.996Z,6.57
2023-08-15T02:05:42.561Z,7.20
2023-08-15T02:08:09.891Z,7.45
2023-08-15T02:10:39.014Z,6.65
2023-08-15T02:13:07.314Z,6.95
2023-08-15T02:15:34.647Z,6.85
2023-08-15T02:18:02.068Z,6.72
2023-08-15T02:20:29.497Z,6.90
2023-08-15T02:22:57.644Z,7.22
2023-08-15T02:25:25.060Z,6.75
2023-08-15T02:27:53.163Z,6.40
2023-08-15T02:30:22.539Z,7.10
2023-08-15T02:32:49.983Z,6.93
2023-08-15T02:35:20.617Z,6.70
2023-08-15T02:37:47.880Z,6.50
2023-08-15T02:40:15.237Z,6.25
2023-08-15T02:42:42.478Z,6.78
2023-08-15T02:45:10.089Z,7.65
2023-08-15T02:47:37.443Z,7.40
2023-08-15T02:50:05.327Z,6.53
2023-08-15T02:52:32.592Z,6.88
2023-08-15T02:54:59.881Z,6.68
2023-08-15T02:57:27.261Z,7.25
2023-08-15T02:59:54.515Z,6.97
2023-08-15T03:02:21.938Z,6.95
2023-08-15T03:04:49.319Z,6.25
2023-08-15T03:07:16.776Z,7.32
2023-08-15T03:09:44.061Z,6.90
2023-08-15T03:12:11.512Z,7.78
2023-08-15T03:14:39.281Z,8.10
2023-08-15T03:17:08.585Z,6.47
2023-08-15T03:19:36.290Z,6.22
2023-08-15T03:22:03.633Z,6.75
2023-08-15T03:24:31.853Z,6.45
2023-08-15T03:27:01.025Z,7.25
2023-08-15T03:29:30.984Z,6.55
2023-08-15T03:32:00.194Z,5.82
2023-08-15T03:34:31.948Z,6.55
2023-08-15T03:36:59.200Z,6.53
2023-08-15T03:39:27.583Z,6.18
2023-08-15T03:41:54.879Z,7.00
2023-08-15T03:44:22.216Z,7.35
2023-08-15T03:46:49.682Z,7.07
2023-08-15T03:49:17.347Z,6.00
2023-08-15T03:51:47.672Z,6.80
2023-08-15T03:54:17.800Z,7.55
2023-08-15T03:56:46.243Z,7.00
2023-08-15T03:59:13.624Z,6.63
2023-08-15T04:01:42.025Z,7.15
2023-08-15T04:04:09.671Z,6.95
2023-08-15T04:06:37.185Z,6.50
2023-08-15T04:09:04.821Z,7.30
2023-08-15T04:11:32.220Z,7.03
2023-08-15T04:13:59.924Z,7.18
2023-08-15T04:16:27.880Z,6.85
2023-08-15T04:18:55.204Z,6.95
2023-08-15T04:21:23.725Z,7.93
2023-08-15T04:23:52.018Z,7.20
2023-08-15T04:26:19.246Z,6.82
2023-08-15T04:28:48.096Z,6.68
2023-08-15T04:31:15.480Z,6.82
2023-08-15T04:33:42.867Z,8.10
2023-08-15T04:36:10.537Z,7.35
2023-08-15T04:38:39.288Z,7.00
2023-08-15T04:41:08.074Z,7.15
2023-08-15T04:43:35.406Z,7.55
2023-08-15T04:46:02.855Z,7.28
2023-08-15T04:48:30.268Z,7.28
2023-08-15T04:50:57.559Z,7.57
2023-08-15T04:53:24.924Z,7.40
2023-08-15T04:55:52.290Z,7.45
2023-08-15T04:58:19.602Z,7.32
2023-08-15T05:00:46.889Z,7.10
2023-08-15T05:03:14.262Z,7.28
2023-08-15T05:05:41.622Z,7.60
2023-08-15T05:08:08.957Z,8.07
2023-08-15T05:10:36.788Z,7.95
2023-08-15T05:13:04.327Z,7.40
2023-08-15T05:15:32.040Z,8.27
2023-08-15T05:17:59.926Z,7.65
2023-08-15T05:20:27.709Z,8.23
2023-08-15T05:22:55.053Z,8.52
2023-08-15T05:25:22.677Z,9.48
2023-08-15T05:27:51.834Z,9.02
2023-08-15T05:30:19.553Z,9.63
2023-08-15T05:32:46.952Z,10.02
2023-08-15T05:35:14.386Z,8.65
2023-08-15T05:37:42.628Z,10.05
2023-08-15T05:40:11.610Z,10.68
2023-08-15T05:42:39.077Z,10.15
2023-08-15T05:45:06.942Z,9.32
2023-08-15T05:47:34.339Z,9.27
2023-08-15T05:50:01.861Z,9.82
2023-08-15T05:52:29.340Z,9.20
2023-08-15T05:54:56.961Z,8.20
2023-08-15T05:57:24.776Z,8.50
2023-08-15T05:59:52.135Z,8.93
2023-08-15T06:02:20.496Z,8.05
2023-08-15T06:04:47.770Z,8.23
2023-08-15T06:07:15.112Z,9.00
2023-08-15T06:09:42.424Z,8.95
2023-08-15T06:12:09.914Z,10.48
2023-08-15T06:14:40.083Z,14.20
2023-08-15T06:17:07.466Z,9.50
2023-08-15T06:19:34.806Z,9.27
2023-08-15T06:22:02.157Z,9.00
2023-08-15T06:24:29.444Z,9.35
2023-08-15T06:26:56.828Z,9.30
2023-08-15T06:29:24.394Z,8.23
2023-08-15T06:31:51.767Z,8.05
2023-08-15T06:34:19.264Z,8.07
2023-08-15T06:36:46.718Z,15.07
2023-08-15T06:39:14.013Z,8.57
2023-08-15T06:41:41.349Z,8.07
2023-08-15T06:44:09.388Z,7.78
2023-08-15T06:46:36.995Z,7.50
2023-08-15T06:49:04.472Z,7.63
2023-08-15T06:51:31.716Z,7.90
2023-08-15T06:53:59.082Z,7.40
2023-08-15T06:56:26.445Z,7.68
2023-08-15T06:58:53.692Z,7.43
2023-08-15T07:01:21.385Z,6.88
2023-08-15T07:03:48.796Z,7.60
2023-08-15T07:06:17.404Z,7.03
2023-08-15T07:08:45.615Z,8.15
2023-08-15T07:11:12.997Z,7.65
2023-08-15T07:13:40.433Z,7.38
2023-08-15T07:16:07.820Z,7.95
2023-08-15T07:18:35.133Z,7.80
2023-08-15T07:21:03.533Z,7.13
2023-08-15T07:23:32.152Z,8.32
2023-08-15T07:25:59.606Z,8.23
2023-08-15T07:28:26.975Z,8.68
2023-08-15T07:30:54.239Z,8.77
2023-08-15T07:33:21.466Z,7.78
2023-08-15T07:35:49.162Z,8.77
2023-08-15T07:38:16.540Z,8.13
2023-08-15T07:40:45.284Z,8.23
2023-08-15T07:43:12.650Z,8.90
2023-08-15T07:45:40.335Z,10.30
2023-08-15T07:48:07.743Z,8.85
2023-08-15T07:50:35.181Z,8.43
2023-08-15T07:53:02.447Z,8.48
2023-08-15T07:55:34.153Z,8.52
2023-08-15T07:58:02.069Z,8.48
2023-08-15T08:00:29.616Z,8.25
2023-08-15T08:02:58.180Z,9.20
2023-08-15T08:05:25.662Z,8.63
2023-08-15T08:07:53.038Z,9.75
2023-08-15T08:10:20.353Z,8.50
2023-08-15T08:12:48.022Z,8.15
2023-08-15T08:15:15.565Z,8.80
2023-08-15T08:17:43.136Z,9.75
2023-08-15T08:20:14.090Z,10.02
2023-08-15T08:22:41.574Z,9.55
2023-08-15T08:25:20.554Z,8.80
2023-08-15T08:27:49.009Z,8.93
2023-08-15T08:30:24.830Z,9.00
2023-08-15T08:32:53.897Z,9.38
2023-08-15T08:35:21.696Z,8.82
2023-08-15T08:37:49.062Z,8.88
2023-08-15T08:40:18.585Z,8.90
2023-08-15T08:42:47.106Z,9.52
2023-08-15T08:45:15.280Z,9.68
2023-08-15T08:47:45.228Z,9.20
2023-08-15T08:50:13.083Z,9.25
2023-08-15T08:52:42.528Z,8.65
2023-08-15T08:55:10.449Z,8.38
2023-08-15T08:57:38.438Z,8.52
2023-08-15T09:00:10.928Z,9.15
2023-08-15T09:02:38.753Z,8.43
2023-08-15T09:05:08.934Z,9.20
2023-08-15T09:07:37.004Z,9.52
2023-08-15T09:10:07.218Z,9.10
2023-08-15T09:12:36.384Z,9.40
2023-08-15T09:15:11.513Z,9.63
2023-08-15T09:17:39.646Z,8.50
2023-08-15T09:20:13.563Z,9.57
2023-08-15T09:22:45.433Z,8.32
2023-08-15T09:25:16.287Z,8.35
2023-08-15T09:27:44.857Z,8.65
2023-08-15T09:30:14.378Z,8.43
2023-08-15T09:32:43.785Z,9.65
2023-08-15T09:35:13.612Z,9.75
2023-08-15T09:37:49.230Z,9.45
2023-08-15T09:40:24.776Z,9.80
2023-08-15T09:42:55.663Z,9.43
2023-08-15T09:45:23.288Z,9.25
2023-08-15T09:47:50.870Z,9.70
2023-08-15T09:50:18.229Z,9.73
2023-08-15T09:52:51.873Z,10.20
2023-08-15T09:55:20.270Z,9.98
2023-08-15T09:57:47.903Z,9.27
2023-08-15T10:00:18.682Z,8.77
2023-08-15T10:02:56.760Z,9.40
2023-08-15T10:05:26.656Z,8.68
2023-08-15T10:07:54.446Z,8.95
2023-08-15T10:10:22.528Z,8.20
2023-08-15T10:12:51.226Z,8.98
2023-08-15T10:15:20.180Z,8.60
2023-08-15T10:17:48.143Z,8.38
2023-08-15T10:20:19.786Z,7.43
2023-08-15T10:22:51.917Z,7.88
2023-08-15T10:25:25.286Z,7.90
2023-08-15T10:27:55.415Z,8.32
2023-08-15T10:30:44.774Z,7.43
2023-08-15T10:33:20.452Z,9.43
2023-08-15T10:35:52.245Z,8.30
2023-08-15T10:38:23.628Z,8.40
2023-08-15T10:40:53.409Z,8.65
2023-08-15T10:43:26.029Z,8.55
2023-08-15T10:45:56.511Z,8.70
2023-08-15T10:48:55.757Z,8.87
2023-08-15T10:51:31.650Z,8.43
2023-08-15T10:54:01.180Z,8.40
2023-08-15T10:56:30.699Z,8.15
2023-08-15T10:58:59.277Z,8.13
2023-08-15T11:01:28.653Z,8.18
2023-08-15T11:03:58.021Z,7.82
2023-08-15T11:06:26.055Z,7.93
2023-08-15T11:08:56.355Z,7.30
2023-08-15T11:11:24.103Z,8.55
2023-08-15T11:13:53.721Z,8.43
2023-08-15T11:16:24.026Z,8.32
2023-08-15T11:18:51.804Z,7.50
2023-08-15T11:21:19.633Z,8.15
2023-08-15T11:23:49.422Z,8.20
2023-08-15T11:26:18.096Z,8.80
2023-08-15T11:28:45.767Z,9.05
2023-08-15T11:31:22.387Z,8.20
2023-08-15T11:33:52.869Z,8.35
2023-08-15T11:36:22.162Z,7.20
2023-08-15T11:38:49.513Z,7.10
2023-08-15T11:41:17.399Z,6.70
2023-08-15T11:43:46.578Z,7.03
2023-08-15T11:46:14.074Z,7.35
2023-08-15T11:48:47.912Z,7.50
2023-08-15T11:51:24.553Z,7.03
2023-08-15T11:53:55.916Z,6.93
2023-08-15T11:56:23.506Z,7.03
2023-08-15T11:58:50.809Z,7.75
2023-08-15T12:01:18.176Z,7.22
2023-08-15T12:03:45.752Z,7.57
2023-08-15T12:06:15.373Z,7.90
2023-08-15T12:08:46.272Z,7.63
2023-08-15T12:13:42.492Z,7.63
2023-08-15T12:16:11.107Z,7.75
2023-08-15T12:18:40.655Z,7.90
2023-08-15T12:21:10.902Z,7.55
2023-08-15T12:23:40.516Z,6.82
2023-08-15T12:26:07.829Z,8.52
2023-08-15T12:28:35.323Z,7.82
2023-08-15T12:31:02.756Z,7.30
2023-08-15T12:33:42.033Z,7.47
2023-08-15T12:36:14.402Z,6.88
2023-08-15T12:38:41.683Z,6.70
2023-08-15T12:41:10.284Z,6.70
2023-08-15T12:43:38.105Z,6.63
2023-08-15T12:46:05.474Z,6.68
2023-08-15T12:48:32.852Z,7.15
2023-08-15T12:51:00.999Z,7.22
2023-08-15T12:53:28.370Z,6.88
2023-08-15T12:55:55.906Z,6.80
2023-08-15T12:58:23.493Z,7.95
2023-08-15T13:00:52.278Z,7.18
2023-08-15T13:03:20.170Z,7.55
2023-08-15T13:05:48.834Z,7.20
2023-08-15T13:08:17.299Z,7.80
2023-08-15T13:10:44.952Z,7.30
2023-08-15T13:13:12.396Z,7.38
2023-08-15T13:15:39.874Z,7.65
2023-08-15T13:18:07.316Z,8.02
2023-08-15T13:20:34.867Z,6.85
2023-08-15T13:23:02.369Z,7.28
2023-08-15T13:25:30.614Z,7.10
2023-08-15T13:27:58.264Z,7.10
2023-08-15T13:30:25.694Z,7.07
2023-08-15T13:32:53.132Z,7.60
2023-08-15T13:35:20.710Z,7.05
2023-08-15T13:37:48.032Z,7.22
2023-08-15T13:40:15.624Z,6.88
2023-08-15T13:42:43.457Z,7.05
2023-08-15T13:45:11.320Z,7.50
2023-08-15T13:47:39.504Z,7.00
2023-08-15T13:50:08.093Z,7.70
2023-08-15T13:52:37.772Z,7.00
2023-08-15T13:55:06.433Z,8.23
2023-08-15T13:57:34.191Z,7.22
2023-08-15T14:00:05.172Z,6.43
2023-08-15T14:02:36.525Z,6.40
2023-08-15T14:05:05.584Z,7.55
2023-08-15T14:07:34.075Z,8.60
2023-08-15T14:10:01.623Z,8.90
2023-08-15T14:12:29.192Z,9.15
2023-08-15T14:14:57.216Z,9.57
2023-08-15T14:17:24.630Z,9.20
2023-08-15T14:19:51.946Z,7.22
2023-08-15T14:22:19.318Z,7.07
2023-08-15T14:24:50.025Z,7.60
2023-08-15T14:27:19.756Z,7.40
2023-08-15T14:29:50.295Z,7.78
2023-08-15T14:32:18.354Z,7.68
2023-08-15T14:34:45.700Z,8.00
2023-08-15T14:37:13.077Z,8.50
2023-08-15T14:39:40.429Z,7.28
2023-08-15T14:42:07.787Z,6.95
2023-08-15T14:44:35.732Z,7.80
2023-08-15T14:47:03.076Z,7.95
2023-08-15T14:49:30.382Z,7.45
2023-08-15T14:51:57.645Z,7.75
2023-08-15T14:54:25.009Z,7.95
2023-08-15T14:56:52.372Z,7.10
2023-08-15T14:59:19.659Z,7.28
2023-08-15T15:01:46.978Z,7.70
2023-08-15T15:04:14.250Z,7.43
2023-08-15T15:06:41.867Z,7.13
2023-08-15T15:09:09.124Z,7.50
2023-08-15T15:11:36.471Z,6.70
2023-08-15T15:14:03.818Z,6.35
2023-08-15T15:16:31.231Z,6.60
2023-08-15T15:18:58.678Z,6.45
2023-08-15T15:21:26.026Z,7.38
2023-08-15T15:23:53.436Z,6.85
2023-08-15T15:26:22.462Z,6.63
2023-08-15T15:28:50.809Z,6.93
2023-08-15T15:31:18.114Z,7.15
2023-08-15T15:33:45.465Z,7.43
2023-08-15T15:36:12.729Z,7.50
2023-08-15T15:38:40.262Z,7.40
2023-08-15T15:41:07.534Z,7.70
2023-08-15T15:43:34.853Z,6.53
2023-08-15T15:46:02.235Z,6.75
2023-08-15T15:48:29.650Z,8.93
2023-08-15T15:50:56.955Z,7.57
2023-08-15T15:53:24.341Z,8.23
2023-08-15T15:55:51.747Z,7.85
2023-08-15T15:58:19.227Z,7.40
2023-08-15T16:00:46.568Z,7.60
2023-08-15T16:03:14.420Z,8.63
2023-08-15T16:05:41.773Z,8.02
2023-08-15T16:08:09.090Z,8.38
2023-08-15T16:10:36.442Z,7.60
2023-08-15T16:13:03.793Z,8.57
2023-08-15T16:15:31.140Z,7.80
2023-08-15T16:17:58.539Z,8.00
2023-08-15T16:20:26.087Z,7.93
2023-08-15T16:22:53.717Z,8.13
2023-08-15T16:25:21.105Z,8.30
2023-08-15T16:27:48.349Z,8.48
2023-08-15T16:30:18.448Z,8.23
2023-08-15T16:37:46.508Z,7.88
2023-08-15T16:40:14.209Z,8.55
2023-08-15T16:42:41.703Z,8.77
2023-08-15T16:45:09.642Z,8.23
2023-08-15T16:47:37.033Z,9.05
2023-08-15T16:50:04.615Z,8.85
2023-08-15T16:52:32.060Z,8.82
2023-08-15T16:54:59.357Z,8.65
2023-08-15T16:57:26.809Z,8.77
2023-08-15T16:59:54.125Z,9.57
2023-08-15T17:02:21.671Z,8.70
2023-08-15T17:04:49.416Z,8.40
2023-08-15T17:07:16.782Z,9.48
2023-08-15T17:09:44.103Z,9.18
2023-08-15T17:12:11.428Z,9.45
2023-08-15T17:14:38.804Z,9.25
2023-08-15T17:17:06.100Z,9.23
2023-08-15T17:19:33.398Z,9.00
2023-08-15T17:22:00.692Z,8.88
2023-08-15T17:24:27.988Z,9.50
2023-08-15T17:26:55.240Z,9.02
2023-08-15T17:29:22.574Z,8.57
2023-08-15T17:31:50.936Z,8.80
2023-08-15T17:34:18.315Z,8.30
2023-08-15T17:36:45.708Z,8.85
2023-08-15T17:39:13.524Z,9.50
2023-08-15T17:41:41.500Z,8.80
2023-08-15T17:44:09.604Z,9.40
2023-08-15T17:46:37.131Z,8.32
2023-08-15T17:49:04.566Z,8.35
2023-08-15T17:51:31.845Z,9.07
2023-08-15T17:53:59.118Z,8.93
2023-08-15T17:56:26.456Z,8.80
2023-08-15T17:58:54.712Z,8.57
2023-08-15T18:01:22.115Z,8.30
2023-08-15T18:03:49.520Z,9.07
2023-08-15T18:06:17.601Z,9.00
2023-08-15T18:08:45.289Z,9.68
2023-08-15T18:11:12.703Z,9.40
2023-08-15T18:13:40.174Z,8.90
2023-08-15T18:16:09.051Z,8.88
2023-08-15T18:18:36.464Z,9.32
2023-08-15T18:21:03.944Z,8.90
2023-08-15T18:23:31.337Z,8.80
2023-08-15T18:25:58.782Z,8.50
2023-08-15T18:28:26.162Z,8.30
2023-08-15T18:30:53.743Z,7.90
2023-08-15T18:33:22.504Z,7.78
2023-08-15T18:35:54.651Z,8.73
2023-08-15T18:38:22.209Z,8.10
2023-08-15T18:40:49.505Z,7.28
2023-08-15T18:43:16.823Z,8.20
2023-08-15T18:45:45.533Z,7.60
2023-08-15T18:48:13.929Z,8.50
2023-08-15T18:50:41.884Z,7.85
2023-08-15T18:53:09.220Z,7.30
2023-08-15T18:55:36.636Z,7.35
2023-08-15T18:58:04.118Z,7.70
2023-08-15T19:00:31.518Z,8.00
2023-08-15T19:02:59.120Z,7.07
2023-08-15T19:05:26.476Z,7.70
2023-08-15T19:07:53.899Z,7.00
2023-08-15T19:10:22.050Z,7.30
2023-08-15T19:12:49.387Z,7.43
2023-08-15T19:15:18.587Z,7.45
2023-08-15T19:17:49.919Z,7.63
2023-08-15T19:20:19.786Z,8.32
2023-08-15T19:22:47.159Z,8.15
2023-08-15T19:25:14.921Z,7.93
2023-08-15T19:27:43.216Z,8.40
2023-08-15T19:30:11.007Z,8.10
2023-08-15T19:32:38.410Z,7.80
2023-08-15T19:35:06.279Z,8.23
2023-08-15T19:37:37.837Z,9.02
2023-08-15T19:40:10.138Z,8.73
2023-08-15T19:42:45.392Z,8.13
2023-08-15T19:45:14.321Z,8.60
2023-08-15T19:47:42.387Z,8.48
2023-08-15T19:50:10.468Z,8.07
2023-08-15T19:52:38.105Z,8.90
2023-08-15T19:55:05.677Z,8.40
2023-08-15T19:57:33.698Z,8.65
2023-08-15T20:00:01.764Z,8.45
2023-08-15T20:02:30.040Z,7.63
2023-08-15T20:04:57.479Z,8.10
2023-08-15T20:07:24.971Z,7.60
2023-08-15T20:10:08.242Z,7.93
2023-08-15T20:12:38.844Z,7.72
2023-08-15T20:15:06.641Z,7.72
2023-08-15T20:17:34.280Z,7.40
2023-08-15T20:20:01.793Z,7.80
2023-08-15T20:22:29.095Z,8.20
2023-08-15T20:24:57.821Z,7.70
2023-08-15T20:27:25.308Z,7.65
2023-08-15T20:29:57.663Z,7.38
2023-08-15T20:32:26.772Z,8.35
2023-08-15T20:34:54.595Z,7.80
2023-08-15T20:37:21.973Z,8.13
2023-08-15T20:39:49.350Z,7.53
2023-08-15T20:42:16.681Z,8.05
2023-08-15T20:44:43.977Z,7.78
2023-08-15T20:47:11.315Z,7.15
2023-08-15T20:49:40.308Z,7.03
2023-08-15T20:52:07.792Z,7.35
2023-08-15T20:54:35.110Z,7.57
2023-08-15T20:57:02.751Z,7.30
2023-08-15T20:59:30.005Z,7.38
2023-08-15T21:01:57.462Z,7.95
2023-08-15T21:04:25.439Z,7.13
2023-08-15T21:06:53.565Z,6.88
2023-08-15T21:09:21.164Z,7.25
2023-08-15T21:11:48.554Z,7.30
2023-08-15T21:14:15.999Z,7.63
2023-08-15T21:16:43.795Z,7.10
2023-08-15T21:19:11.132Z,7.85
2023-08-15T21:21:38.481Z,7.70
2023-08-15T21:24:06.344Z,6.75
2023-08-15T21:26:33.652Z,6.70
2023-08-15T21:29:01.001Z,7.20
2023-08-15T21:31:29.757Z,6.68
2023-08-15T21:33:57.127Z,7.28
2023-08-15T21:36:24.416Z,7.53
2023-08-15T21:38:51.764Z,7.38
2023-08-15T21:41:19.136Z,7.10
2023-08-15T21:43:46.446Z,7.60
2023-08-15T21:46:13.865Z,6.85
2023-08-15T21:48:41.274Z,7.25
2023-08-15T21:51:08.606Z,6.47
2023-08-15T21:53:36.682Z,7.25
2023-08-15T21:56:04.160Z,7.20
2023-08-15T21:58:31.560Z,7.22
2023-08-15T22:00:58.802Z,7.07
2023-08-15T22:03:26.126Z,7.18
2023-08-15T22:05:53.498Z,7.32
2023-08-15T22:08:20.924Z,6.97
2023-08-15T22:10:48.141Z,7.75
2023-08-15T22:13:15.523Z,6.95
2023-08-15T22:15:45.752Z,7.18
2023-08-15T22:18:20.405Z,7.25
2023-08-15T22:20:49.653Z,7.18
2023-08-15T22:23:16.984Z,6.97
2023-08-15T22:25:48.401Z,7.90
2023-08-15T22:28:16.477Z,7.03
2023-08-15T22:30:44.821Z,6.80
2023-08-15T22:33:12.081Z,6.97
2023-08-15T22:35:41.385Z,6.88
2023-08-15T22:38:09.196Z,6.82
2023-08-15T22:40:36.853Z,7.32
2023-08-15T22:43:05.564Z,7.38
2023-08-15T22:45:32.857Z,7.97
2023-08-15T22:48:00.341Z,7.10
2023-08-15T22:50:27.690Z,7.80
2023-08-15T22:52:58.423Z,7.55
2023-08-15T22:55:25.888Z,7.60
2023-08-15T22:57:53.190Z,6.78
2023-08-15T23:00:20.514Z,7.25
2023-08-15T23:02:48.003Z,7.57
2023-08-15T23:05:15.568Z,7.78
2023-08-15T23:07:42.994Z,7.13
2023-08-15T23:10:10.656Z,8.10
2023-08-15T23:12:37.979Z,6.93
2023-08-15T23:15:06.285Z,8.32
2023-08-15T23:17:33.639Z,7.93
2023-08-15T23:20:01.182Z,7.57
2023-08-15T23:22:28.521Z,7.90
2023-08-15T23:24:56.043Z,7.68
2023-08-15T23:27:23.558Z,7.72
2023-08-15T23:29:51.096Z,7.45
2023-08-15T23:32:18.722Z,7.40
2023-08-15T23:34:46.025Z,8.73
2023-08-15T23:37:13.303Z,7.80
2023-08-15T23:39:40.549Z,8.75
2023-08-15T23:42:08.666Z,7.97
2023-08-15T23:44:36.016Z,7.38
2023-08-15T23:47:03.485Z,7.85
2023-08-15T23:49:30.798Z,8.70
2023-08-15T23:51:58.067Z,9.20
2023-08-15T23:54:25.720Z,7.97
2023-08-15T23:56:53.065Z,7.80
2023-08-15T23:59:20.700Z,7.97
